sensor_id;sensor_type;location;lat;lon;timestamp;pressure;altitude;pressure_sealevel;temperature;humidity
85909;BME280;76449;52.542;4.680;2024-02-26T00:01:55;100075.44;;;20.26;39.56
85909;BME280;76449;52.542;4.680;2024-02-26T00:04:21;100075.56;;;20.24;39.94
85909;BME280;76449;52.542;4.680;2024-02-26T00:06:47;100090.75;;;20.24;39.57
85909;BME280;76449;52.542;4.680;2024-02-26T00:09:13;100084.53;;;20.23;39.83
85909;BME280;76449;52.542;4.680;2024-02-26T00:11:38;100082.06;;;20.20;39.78
85909;BME280;76449;52.542;4.680;2024-02-26T00:14:04;100086.47;;;20.21;39.84
85909;BME280;76449;52.542;4.680;2024-02-26T00:16:30;100089.16;;;20.21;39.75
85909;BME280;76449;52.542;4.680;2024-02-26T00:18:55;100089.22;;;20.20;39.83
85909;BME280;76449;52.542;4.680;2024-02-26T00:21:21;100084.84;;;20.19;40.03
85909;BME280;76449;52.542;4.680;2024-02-26T00:23:46;100091.84;;;20.21;39.47
85909;BME280;76449;52.542;4.680;2024-02-26T00:26:11;100095.50;;;20.20;39.55
85909;BME280;76449;52.542;4.680;2024-02-26T00:28:37;100099.97;;;20.20;39.91
85909;BME280;76449;52.542;4.680;2024-02-26T00:31:03;100097.50;;;20.17;39.66
85909;BME280;76449;52.542;4.680;2024-02-26T00:33:28;100106.28;;;20.19;39.87
85909;BME280;76449;52.542;4.680;2024-02-26T00:35:54;100101.41;;;20.11;39.62
85909;BME280;76449;52.542;4.680;2024-02-26T00:38:19;100104.69;;;20.16;39.76
85909;BME280;76449;52.542;4.680;2024-02-26T00:40:44;100112.81;;;20.15;39.55
85909;BME280;76449;52.542;4.680;2024-02-26T00:43:10;100110.91;;;20.17;39.89
85909;BME280;76449;52.542;4.680;2024-02-26T00:45:35;100102.94;;;20.15;39.58
85909;BME280;76449;52.542;4.680;2024-02-26T00:48:00;100108.31;;;20.15;39.56
85909;BME280;76449;52.542;4.680;2024-02-26T00:50:33;100108.31;;;20.15;39.92
85909;BME280;76449;52.542;4.680;2024-02-26T00:52:58;100099.63;;;20.12;39.65
85909;BME280;76449;52.542;4.680;2024-02-26T00:55:24;100100.47;;;20.12;39.83
85909;BME280;76449;52.542;4.680;2024-02-26T00:57:49;100102.19;;;20.13;39.72
85909;BME280;76449;52.542;4.680;2024-02-26T01:00:15;100104.03;;;20.13;39.78
85909;BME280;76449;52.542;4.680;2024-02-26T01:02:40;100098.66;;;20.13;39.34
85909;BME280;76449;52.542;4.680;2024-02-26T01:05:07;100107.56;;;20.13;39.32
85909;BME280;76449;52.542;4.680;2024-02-26T01:07:34;100102.31;;;20.12;39.42
85909;BME280;76449;52.542;4.680;2024-02-26T01:10:02;100109.28;;;20.14;39.30
85909;BME280;76449;52.542;4.680;2024-02-26T01:12:27;100094.34;;;20.10;39.63
85909;BME280;76449;52.542;4.680;2024-02-26T01:14:52;100113.13;;;20.10;39.62
85909;BME280;76449;52.542;4.680;2024-02-26T01:17:18;100103.34;;;20.09;39.46
85909;BME280;76449;52.542;4.680;2024-02-26T01:19:43;100111.69;;;20.04;39.68
85909;BME280;76449;52.542;4.680;2024-02-26T01:22:09;100125.78;;;20.08;39.61
85909;BME280;76449;52.542;4.680;2024-02-26T01:24:34;100117.72;;;20.08;39.24
85909;BME280;76449;52.542;4.680;2024-02-26T01:26:59;100116.00;;;20.07;39.38
85909;BME280;76449;52.542;4.680;2024-02-26T01:29:25;100127.59;;;20.07;39.40
85909;BME280;76449;52.542;4.680;2024-02-26T01:31:50;100126.81;;;20.05;39.24
85909;BME280;76449;52.542;4.680;2024-02-26T01:34:16;100131.13;;;20.08;39.60
85909;BME280;76449;52.542;4.680;2024-02-26T01:36:43;100130.34;;;20.06;39.30
85909;BME280;76449;52.542;4.680;2024-02-26T01:39:08;100126.81;;;20.05;39.34
85909;BME280;76449;52.542;4.680;2024-02-26T01:41:36;100133.03;;;20.06;39.53
85909;BME280;76449;52.542;4.680;2024-02-26T01:44:02;100134.00;;;20.05;39.30
85909;BME280;76449;52.542;4.680;2024-02-26T01:46:28;100140.22;;;20.05;39.20
85909;BME280;76449;52.542;4.680;2024-02-26T01:48:54;100135.84;;;20.04;39.41
85909;BME280;76449;52.542;4.680;2024-02-26T01:51:19;100141.31;;;20.03;39.34
85909;BME280;76449;52.542;4.680;2024-02-26T01:53:45;100143.00;;;20.04;39.44
85909;BME280;76449;52.542;4.680;2024-02-26T01:56:11;100141.38;;;20.01;39.15
85909;BME280;76449;52.542;4.680;2024-02-26T01:58:37;100144.16;;;20.00;39.18
85909;BME280;76449;52.542;4.680;2024-02-26T02:01:03;100146.75;;;20.01;39.06
85909;BME280;76449;52.542;4.680;2024-02-26T02:03:29;100137.94;;;19.99;39.04
85909;BME280;76449;52.542;4.680;2024-02-26T02:05:55;100145.88;;;20.01;39.20
85909;BME280;76449;52.542;4.680;2024-02-26T02:08:21;100146.00;;;19.99;39.28
85909;BME280;76449;52.542;4.680;2024-02-26T02:10:48;100138.13;;;19.96;39.30
85909;BME280;76449;52.542;4.680;2024-02-26T02:13:14;100137.09;;;19.99;39.23
85909;BME280;76449;52.542;4.680;2024-02-26T02:15:39;100149.53;;;20.00;39.02
85909;BME280;76449;52.542;4.680;2024-02-26T02:18:05;100141.50;;;20.00;39.32
85909;BME280;76449;52.542;4.680;2024-02-26T02:20:34;100139.84;;;19.97;39.14
85909;BME280;76449;52.542;4.680;2024-02-26T02:23:00;100144.34;;;19.97;39.15
85909;BME280;76449;52.542;4.680;2024-02-26T02:25:26;100151.44;;;19.98;39.14
85909;BME280;76449;52.542;4.680;2024-02-26T02:27:53;100143.50;;;19.96;38.99
85909;BME280;76449;52.542;4.680;2024-02-26T02:30:19;100159.47;;;19.98;38.93
85909;BME280;76449;52.542;4.680;2024-02-26T02:32:45;100159.59;;;19.96;38.94
85909;BME280;76449;52.542;4.680;2024-02-26T02:35:11;100153.53;;;19.93;39.33
85909;BME280;76449;52.542;4.680;2024-02-26T02:37:36;100167.72;;;19.95;39.24
85909;BME280;76449;52.542;4.680;2024-02-26T02:40:02;100173.16;;;19.93;39.04
85909;BME280;76449;52.542;4.680;2024-02-26T02:42:28;100182.06;;;19.94;39.39
85909;BME280;76449;52.542;4.680;2024-02-26T02:44:53;100183.91;;;19.93;39.38
85909;BME280;76449;52.542;4.680;2024-02-26T02:47:18;100187.44;;;19.94;39.33
85909;BME280;76449;52.542;4.680;2024-02-26T02:49:44;100184.00;;;19.92;39.41
85909;BME280;76449;52.542;4.680;2024-02-26T02:52:09;100189.25;;;19.93;39.33
85909;BME280;76449;52.542;4.680;2024-02-26T02:54:34;100178.06;;;19.87;39.35
85909;BME280;76449;52.542;4.680;2024-02-26T02:57:02;100185.72;;;19.93;39.74
85909;BME280;76449;52.542;4.680;2024-02-26T02:59:27;100178.94;;;19.87;39.63
85909;BME280;76449;52.542;4.680;2024-02-26T03:01:53;100184.09;;;19.90;39.44
85909;BME280;76449;52.542;4.680;2024-02-26T03:04:18;100184.28;;;19.87;39.53
85909;BME280;76449;52.542;4.680;2024-02-26T03:06:43;100177.22;;;19.86;39.16
85909;BME280;76449;52.542;4.680;2024-02-26T03:09:09;100193.09;;;19.89;39.30
85909;BME280;76449;52.542;4.680;2024-02-26T03:11:34;100195.13;;;19.86;39.61
85909;BME280;76449;52.542;4.680;2024-02-26T03:14:00;100186.28;;;19.83;39.39
85909;BME280;76449;52.542;4.680;2024-02-26T03:16:25;100202.19;;;19.87;39.35
85909;BME280;76449;52.542;4.680;2024-02-26T03:18:50;100203.16;;;19.86;39.48
85909;BME280;76449;52.542;4.680;2024-02-26T03:21:16;100200.56;;;19.84;39.32
85909;BME280;76449;52.542;4.680;2024-02-26T03:23:41;100206.69;;;19.86;39.32
85909;BME280;76449;52.542;4.680;2024-02-26T03:26:06;100222.78;;;19.86;39.35
85909;BME280;76449;52.542;4.680;2024-02-26T03:28:33;100223.53;;;19.88;39.46
85909;BME280;76449;52.542;4.680;2024-02-26T03:30:59;100220.09;;;19.86;39.34
85909;BME280;76449;52.542;4.680;2024-02-26T03:33:25;100223.63;;;19.87;39.66
85909;BME280;76449;52.542;4.680;2024-02-26T03:35:50;100236.94;;;19.88;38.95
85909;BME280;76449;52.542;4.680;2024-02-26T03:38:15;100237.91;;;19.87;39.38
85909;BME280;76449;52.542;4.680;2024-02-26T03:40:41;100233.50;;;19.86;39.64
85909;BME280;76449;52.542;4.680;2024-02-26T03:43:06;100243.25;;;19.87;39.64
85909;BME280;76449;52.542;4.680;2024-02-26T03:45:32;100231.75;;;19.85;39.56
85909;BME280;76449;52.542;4.680;2024-02-26T03:47:58;100238.94;;;19.84;39.53
85909;BME280;76449;52.542;4.680;2024-02-26T03:50:23;100235.41;;;19.84;39.32
85909;BME280;76449;52.542;4.680;2024-02-26T03:52:49;100242.47;;;19.85;39.57
85909;BME280;76449;52.542;4.680;2024-02-26T03:55:14;100231.97;;;19.82;39.28
85909;BME280;76449;52.542;4.680;2024-02-26T03:57:39;100233.69;;;19.83;39.63
85909;BME280;76449;52.542;4.680;2024-02-26T04:00:05;100235.41;;;19.84;39.31
85909;BME280;76449;52.542;4.680;2024-02-26T04:02:31;100236.25;;;19.84;39.13
85909;BME280;76449;52.542;4.680;2024-02-26T04:04:56;100239.16;;;19.81;39.70
85909;BME280;76449;52.542;4.680;2024-02-26T04:07:22;100251.50;;;19.84;39.59
85909;BME280;76449;52.542;4.680;2024-02-26T04:09:47;100248.06;;;19.82;39.44
85909;BME280;76449;52.542;4.680;2024-02-26T04:12:12;100252.44;;;19.83;39.59
85909;BME280;76449;52.542;4.680;2024-02-26T04:14:38;100258.00;;;19.80;39.36
85909;BME280;76449;52.542;4.680;2024-02-26T04:17:03;100257.25;;;19.78;39.37
85909;BME280;76449;52.542;4.680;2024-02-26T04:19:29;100260.59;;;19.81;39.64
85909;BME280;76449;52.542;4.680;2024-02-26T04:21:54;100255.41;;;19.78;39.26
85909;BME280;76449;52.542;4.680;2024-02-26T04:24:20;100265.84;;;19.83;39.57
85909;BME280;76449;52.542;4.680;2024-02-26T04:26:45;100271.22;;;19.83;39.25
85909;BME280;76449;52.542;4.680;2024-02-26T04:29:11;100259.81;;;19.79;39.18
85909;BME280;76449;52.542;4.680;2024-02-26T04:31:37;100261.53;;;19.80;39.30
85909;BME280;76449;52.542;4.680;2024-02-26T04:34:02;100260.78;;;19.78;39.62
85909;BME280;76449;52.542;4.680;2024-02-26T04:36:28;100262.50;;;19.79;39.36
85909;BME280;76449;52.542;4.680;2024-02-26T04:38:53;100267.84;;;19.79;39.33
85909;BME280;76449;52.542;4.680;2024-02-26T04:41:20;100274.94;;;19.80;39.39
85909;BME280;76449;52.542;4.680;2024-02-26T04:43:46;100268.81;;;19.78;39.32
85909;BME280;76449;52.542;4.680;2024-02-26T04:46:11;100261.16;;;19.72;39.51
85909;BME280;76449;52.542;4.680;2024-02-26T04:48:36;100268.03;;;19.76;39.34
85909;BME280;76449;52.542;4.680;2024-02-26T04:51:03;100273.31;;;19.78;39.49
85909;BME280;76449;52.542;4.680;2024-02-26T04:53:29;100278.56;;;19.79;39.50
85909;BME280;76449;52.542;4.680;2024-02-26T04:55:54;100270.81;;;19.75;39.60
85909;BME280;76449;52.542;4.680;2024-02-26T04:58:20;100277.88;;;19.76;39.52
85909;BME280;76449;52.542;4.680;2024-02-26T05:00:45;100301.16;;;19.75;39.54
85909;BME280;76449;52.542;4.680;2024-02-26T05:03:10;100301.16;;;19.75;39.36
85909;BME280;76449;52.542;4.680;2024-02-26T05:05:41;100309.97;;;19.77;39.28
85909;BME280;76449;52.542;4.680;2024-02-26T05:08:06;100308.22;;;19.76;39.22
85909;BME280;76449;52.542;4.680;2024-02-26T05:10:33;100308.22;;;19.76;39.31
85909;BME280;76449;52.542;4.680;2024-02-26T05:12:58;100312.84;;;19.74;39.57
85909;BME280;76449;52.542;4.680;2024-02-26T05:15:23;100306.78;;;19.71;39.20
85909;BME280;76449;52.542;4.680;2024-02-26T05:17:49;100315.63;;;19.73;39.28
85909;BME280;76449;52.542;4.680;2024-02-26T05:20:14;100317.34;;;19.74;39.50
85909;BME280;76449;52.542;4.680;2024-02-26T05:22:39;100319.91;;;19.75;39.38
85909;BME280;76449;52.542;4.680;2024-02-26T05:25:05;100305.53;;;19.62;39.38
85909;BME280;76449;52.542;4.680;2024-02-26T05:27:30;100312.09;;;19.72;39.21
85909;BME280;76449;52.542;4.680;2024-02-26T05:29:55;100326.41;;;19.71;39.39
85909;BME280;76449;52.542;4.680;2024-02-26T05:32:21;100333.31;;;19.75;39.61
85909;BME280;76449;52.542;4.680;2024-02-26T05:34:47;100325.47;;;19.72;39.20
85909;BME280;76449;52.542;4.680;2024-02-26T05:37:12;100333.53;;;19.72;38.97
85909;BME280;76449;52.542;4.680;2024-02-26T05:39:37;100344.13;;;19.74;38.87
85909;BME280;76449;52.542;4.680;2024-02-26T05:42:03;100349.59;;;19.72;39.29
85909;BME280;76449;52.542;4.680;2024-02-26T05:44:28;100343.56;;;19.69;39.01
85909;BME280;76449;52.542;4.680;2024-02-26T05:46:54;100354.06;;;19.72;38.86
85909;BME280;76449;52.542;4.680;2024-02-26T05:49:19;100349.78;;;19.69;39.40
85909;BME280;76449;52.542;4.680;2024-02-26T05:51:44;100361.25;;;19.71;39.24
85909;BME280;76449;52.542;4.680;2024-02-26T05:54:10;100367.56;;;19.70;38.97
85909;BME280;76449;52.542;4.680;2024-02-26T05:56:35;100374.94;;;19.67;39.14
85909;BME280;76449;52.542;4.680;2024-02-26T05:59:01;100380.97;;;19.70;38.89
85909;BME280;76449;52.542;4.680;2024-02-26T06:01:26;100382.00;;;19.68;39.12
85909;BME280;76449;52.542;4.680;2024-02-26T06:03:51;100376.91;;;19.63;38.82
85909;BME280;76449;52.542;4.680;2024-02-26T06:06:17;100388.25;;;19.68;39.19
85909;BME280;76449;52.542;4.680;2024-02-26T06:08:43;100397.16;;;19.69;39.12
85909;BME280;76449;52.542;4.680;2024-02-26T06:11:09;100398.03;;;19.69;39.06
85909;BME280;76449;52.542;4.680;2024-02-26T06:13:35;100397.16;;;19.69;38.82
85909;BME280;76449;52.542;4.680;2024-02-26T06:16:00;100392.94;;;19.65;38.83
85909;BME280;76449;52.542;4.680;2024-02-26T06:18:25;100402.69;;;19.66;39.10
85909;BME280;76449;52.542;4.680;2024-02-26T06:20:51;100403.66;;;19.65;38.86
85909;BME280;76449;52.542;4.680;2024-02-26T06:23:16;100386.31;;;19.54;39.31
85909;BME280;76449;52.542;4.680;2024-02-26T06:25:42;100405.38;;;19.66;39.09
85909;BME280;76449;52.542;4.680;2024-02-26T06:28:08;100415.22;;;19.65;38.95
85909;BME280;76449;52.542;4.680;2024-02-26T06:30:33;100411.84;;;19.62;38.89
85909;BME280;76449;52.542;4.680;2024-02-26T06:32:59;100422.56;;;19.62;39.17
85909;BME280;76449;52.542;4.680;2024-02-26T06:35:24;100426.97;;;19.63;39.33
85909;BME280;76449;52.542;4.680;2024-02-26T06:37:50;100431.41;;;19.64;39.00
85909;BME280;76449;52.542;4.680;2024-02-26T06:40:18;100436.75;;;19.64;39.03
85909;BME280;76449;52.542;4.680;2024-02-26T06:42:43;100434.16;;;19.62;39.11
85909;BME280;76449;52.542;4.680;2024-02-26T06:45:09;100439.44;;;19.64;39.05
85909;BME280;76449;52.542;4.680;2024-02-26T06:47:34;100438.72;;;19.60;38.96
85909;BME280;76449;52.542;4.680;2024-02-26T06:49:59;100452.91;;;19.62;39.24
85909;BME280;76449;52.542;4.680;2024-02-26T06:52:26;100439.50;;;19.62;39.12
85909;BME280;76449;52.542;4.680;2024-02-26T06:54:51;100449.28;;;19.63;39.21
85909;BME280;76449;52.542;4.680;2024-02-26T06:57:19;100454.72;;;19.62;39.14
85909;BME280;76449;52.542;4.680;2024-02-26T06:59:44;100459.28;;;19.59;39.23
85909;BME280;76449;52.542;4.680;2024-02-26T07:02:12;100469.94;;;19.61;39.23
85909;BME280;76449;52.542;4.680;2024-02-26T07:04:38;100463.72;;;19.61;39.04
85909;BME280;76449;52.542;4.680;2024-02-26T07:07:03;100473.56;;;19.60;39.29
85909;BME280;76449;52.542;4.680;2024-02-26T07:09:28;100469.22;;;19.57;39.14
85909;BME280;76449;52.542;4.680;2024-02-26T07:11:54;100480.66;;;19.61;39.45
85909;BME280;76449;52.542;4.680;2024-02-26T07:14:19;100485.16;;;19.61;39.22
85909;BME280;76449;52.542;4.680;2024-02-26T07:16:44;100483.47;;;19.58;39.07
85909;BME280;76449;52.542;4.680;2024-02-26T07:19:09;100483.41;;;19.59;39.32
85909;BME280;76449;52.542;4.680;2024-02-26T07:21:35;100489.63;;;19.60;38.95
85909;BME280;76449;52.542;4.680;2024-02-26T07:24:00;100475.38;;;19.59;39.04
85909;BME280;76449;52.542;4.680;2024-02-26T07:26:25;100477.25;;;19.57;39.17
85909;BME280;76449;52.542;4.680;2024-02-26T07:28:51;100485.41;;;19.56;39.31
85909;BME280;76449;52.542;4.680;2024-02-26T07:31:19;100505.78;;;19.58;39.44
85909;BME280;76449;52.542;4.680;2024-02-26T07:33:45;100506.72;;;19.57;39.51
85909;BME280;76449;52.542;4.680;2024-02-26T07:36:10;100518.19;;;19.61;39.84
85909;BME280;76449;52.542;4.680;2024-02-26T07:38:36;100526.91;;;19.65;39.95
85909;BME280;76449;52.542;4.680;2024-02-26T07:41:02;100510.91;;;19.63;39.95
85909;BME280;76449;52.542;4.680;2024-02-26T07:43:27;100520.50;;;19.67;40.02
85909;BME280;76449;52.542;4.680;2024-02-26T07:45:53;100515.94;;;19.69;40.11
85909;BME280;76449;52.542;4.680;2024-02-26T07:48:18;100512.31;;;19.70;39.85
85909;BME280;76449;52.542;4.680;2024-02-26T07:50:43;100522.16;;;19.70;39.94
85909;BME280;76449;52.542;4.680;2024-02-26T07:53:08;100523.81;;;19.72;40.10
85909;BME280;76449;52.542;4.680;2024-02-26T07:55:34;100532.63;;;19.74;40.21
85909;BME280;76449;52.542;4.680;2024-02-26T07:57:59;100523.72;;;19.74;40.01
85909;BME280;76449;52.542;4.680;2024-02-26T08:00:25;100536.06;;;19.76;39.79
85909;BME280;76449;52.542;4.680;2024-02-26T08:02:50;100540.50;;;19.77;40.23
85909;BME280;76449;52.542;4.680;2024-02-26T08:05:16;100556.47;;;19.79;40.02
85909;BME280;76449;52.542;4.680;2024-02-26T08:07:41;100555.53;;;19.80;39.93
85909;BME280;76449;52.542;4.680;2024-02-26T08:10:07;100561.69;;;19.82;39.94
85909;BME280;76449;52.542;4.680;2024-02-26T08:12:32;100562.72;;;19.79;39.99
85909;BME280;76449;52.542;4.680;2024-02-26T08:14:58;100559.06;;;19.80;40.20
85909;BME280;76449;52.542;4.680;2024-02-26T08:17:23;100567.81;;;19.84;40.23
85909;BME280;76449;52.542;4.680;2024-02-26T08:19:49;100561.69;;;19.82;40.06
85909;BME280;76449;52.542;4.680;2024-02-26T08:22:14;100562.53;;;19.82;40.16
85909;BME280;76449;52.542;4.680;2024-02-26T08:24:44;100565.38;;;19.79;40.50
85909;BME280;76449;52.542;4.680;2024-02-26T08:27:09;100564.25;;;19.83;40.15
85909;BME280;76449;52.542;4.680;2024-02-26T08:29:35;100581.16;;;19.86;39.89
85909;BME280;76449;52.542;4.680;2024-02-26T08:32:00;100582.88;;;19.87;40.08
85909;BME280;76449;52.542;4.680;2024-02-26T08:34:26;100572.22;;;19.85;40.39
85909;BME280;76449;52.542;4.680;2024-02-26T08:36:51;100568.59;;;19.86;40.02
85909;BME280;76449;52.542;4.680;2024-02-26T08:39:17;100576.44;;;19.89;39.88
85909;BME280;76449;52.542;4.680;2024-02-26T08:41:43;100570.22;;;19.89;40.16
85909;BME280;76449;52.542;4.680;2024-02-26T08:44:09;100580.94;;;19.89;40.39
85909;BME280;76449;52.542;4.680;2024-02-26T08:46:34;100592.53;;;19.89;40.00
85909;BME280;76449;52.542;4.680;2024-02-26T08:48:59;100598.78;;;19.90;40.08
85909;BME280;76449;52.542;4.680;2024-02-26T08:51:25;100602.41;;;19.89;40.25
85909;BME280;76449;52.542;4.680;2024-02-26T08:53:50;100597.13;;;19.87;40.24
85909;BME280;76449;52.542;4.680;2024-02-26T08:56:16;100602.34;;;19.90;40.03
85909;BME280;76449;52.542;4.680;2024-02-26T08:58:42;100605.88;;;19.91;40.26
85909;BME280;76449;52.542;4.680;2024-02-26T09:01:08;100618.31;;;19.92;40.35
85909;BME280;76449;52.542;4.680;2024-02-26T09:03:33;100623.69;;;19.92;40.07
85909;BME280;76449;52.542;4.680;2024-02-26T09:05:58;100622.91;;;19.90;40.50
85909;BME280;76449;52.542;4.680;2024-02-26T09:08:24;100612.19;;;19.90;40.76
85909;BME280;76449;52.542;4.680;2024-02-26T09:10:49;100625.66;;;19.88;40.57
85909;BME280;76449;52.542;4.680;2024-02-26T09:13:15;100619.34;;;19.89;40.20
85909;BME280;76449;52.542;4.680;2024-02-26T09:15:40;100634.31;;;19.93;40.13
85909;BME280;76449;52.542;4.680;2024-02-26T09:18:06;100630.78;;;19.93;40.44
85909;BME280;76449;52.542;4.680;2024-02-26T09:20:31;100630.88;;;19.91;40.28
85909;BME280;76449;52.542;4.680;2024-02-26T09:22:56;100642.28;;;19.95;40.61
85909;BME280;76449;52.542;4.680;2024-02-26T09:25:22;100634.41;;;19.92;40.67
85909;BME280;76449;52.542;4.680;2024-02-26T09:27:47;100644.97;;;19.95;40.48
85909;BME280;76449;52.542;4.680;2024-02-26T09:30:13;100656.56;;;19.95;40.21
85909;BME280;76449;52.542;4.680;2024-02-26T09:32:39;100651.09;;;19.97;40.39
85909;BME280;76449;52.542;4.680;2024-02-26T09:35:05;100652.31;;;19.91;40.69
85909;BME280;76449;52.542;4.680;2024-02-26T09:37:31;100665.47;;;19.96;40.43
85909;BME280;76449;52.542;4.680;2024-02-26T09:39:56;100659.56;;;19.89;40.42
85909;BME280;76449;52.542;4.680;2024-02-26T09:42:24;100675.38;;;19.94;40.35
85909;BME280;76449;52.542;4.680;2024-02-26T09:44:54;100662.88;;;19.94;40.69
85909;BME280;76449;52.542;4.680;2024-02-26T09:47:21;100661.22;;;19.92;40.61
85909;BME280;76449;52.542;4.680;2024-02-26T09:49:48;100674.63;;;19.92;40.49
85909;BME280;76449;52.542;4.680;2024-02-26T09:52:15;100671.34;;;19.87;40.48
85909;BME280;76449;52.542;4.680;2024-02-26T09:54:40;100691.06;;;19.86;40.65
85909;BME280;76449;52.542;4.680;2024-02-26T09:57:09;100688.19;;;19.89;40.73
85909;BME280;76449;52.542;4.680;2024-02-26T09:59:41;100699.72;;;19.91;40.37
85909;BME280;76449;52.542;4.680;2024-02-26T10:02:12;100694.34;;;19.91;40.62
85909;BME280;76449;52.542;4.680;2024-02-26T10:04:39;100693.66;;;19.87;40.72
85909;BME280;76449;52.542;4.680;2024-02-26T10:07:09;100704.22;;;19.90;40.64
85909;BME280;76449;52.542;4.680;2024-02-26T10:09:35;100713.88;;;19.93;40.44
85909;BME280;76449;52.542;4.680;2024-02-26T10:12:00;100701.78;;;19.86;40.69
85909;BME280;76449;52.542;4.680;2024-02-26T10:14:26;100708.78;;;19.88;40.39
85909;BME280;76449;52.542;4.680;2024-02-26T10:16:51;100694.00;;;19.81;40.25
85909;BME280;76449;52.542;4.680;2024-02-26T10:19:27;100720.31;;;19.90;40.54
85909;BME280;76449;52.542;4.680;2024-02-26T10:21:56;100723.13;;;19.87;40.70
85909;BME280;76449;52.542;4.680;2024-02-26T10:24:23;100735.44;;;19.91;40.64
85909;BME280;76449;52.542;4.680;2024-02-26T10:26:48;100726.59;;;19.89;40.33
85909;BME280;76449;52.542;4.680;2024-02-26T10:29:14;100719.91;;;19.80;40.45
85909;BME280;76449;52.542;4.680;2024-02-26T10:31:42;100746.25;;;19.90;40.53
85909;BME280;76449;52.542;4.680;2024-02-26T10:34:07;100731.03;;;19.90;40.44
85909;BME280;76449;52.542;4.680;2024-02-26T10:36:34;100751.53;;;19.91;40.67
85909;BME280;76449;52.542;4.680;2024-02-26T10:39:02;100740.00;;;19.89;40.48
85909;BME280;76449;52.542;4.680;2024-02-26T10:41:27;100750.72;;;19.89;40.60
85909;BME280;76449;52.542;4.680;2024-02-26T10:43:54;100740.00;;;19.89;40.26
85909;BME280;76449;52.542;4.680;2024-02-26T10:46:19;100753.16;;;19.94;40.46
85909;BME280;76449;52.542;4.680;2024-02-26T10:48:50;100755.06;;;19.92;40.43
85909;BME280;76449;52.542;4.680;2024-02-26T10:51:17;100753.16;;;19.94;40.34
85909;BME280;76449;52.542;4.680;2024-02-26T10:53:45;100756.78;;;19.93;40.34
85909;BME280;76449;52.542;4.680;2024-02-26T10:56:13;100761.03;;;19.97;40.39
85909;BME280;76449;52.542;4.680;2024-02-26T10:58:40;100751.69;;;19.88;40.40
85909;BME280;76449;52.542;4.680;2024-02-26T11:01:08;100777.06;;;19.98;40.41
85909;BME280;76449;52.542;4.680;2024-02-26T11:03:34;100783.69;;;19.91;40.57
85909;BME280;76449;52.542;4.680;2024-02-26T11:06:01;100785.25;;;19.95;40.33
85909;BME280;76449;52.542;4.680;2024-02-26T11:08:29;100786.03;;;19.97;40.17
85909;BME280;76449;52.542;4.680;2024-02-26T11:10:55;100793.47;;;19.92;40.54
85909;BME280;76449;52.542;4.680;2024-02-26T11:13:21;100794.78;;;20.01;40.26
85909;BME280;76449;52.542;4.680;2024-02-26T11:15:48;100791.59;;;19.94;40.49
85909;BME280;76449;52.542;4.680;2024-02-26T11:18:18;100799.28;;;20.00;40.20
85909;BME280;76449;52.542;4.680;2024-02-26T11:20:44;100791.16;;;20.02;40.31
85909;BME280;76449;52.542;4.680;2024-02-26T11:23:11;100800.25;;;19.99;40.11
85909;BME280;76449;52.542;4.680;2024-02-26T11:25:36;100792.97;;;20.01;39.96
85909;BME280;76449;52.542;4.680;2024-02-26T11:28:04;100797.31;;;20.04;40.15
85909;BME280;76449;52.542;4.680;2024-02-26T11:30:33;100797.47;;;20.01;40.16
85909;BME280;76449;52.542;4.680;2024-02-26T11:33:00;100804.50;;;20.03;40.04
85909;BME280;76449;52.542;4.680;2024-02-26T11:35:26;100808.81;;;20.06;40.03
85909;BME280;76449;52.542;4.680;2024-02-26T11:37:54;100797.38;;;20.02;39.92
85909;BME280;76449;52.542;4.680;2024-02-26T11:40:22;100814.88;;;20.09;39.84
85909;BME280;76449;52.542;4.680;2024-02-26T11:42:48;100802.44;;;20.08;39.93
85909;BME280;76449;52.542;4.680;2024-02-26T11:48:03;100819.28;;;20.11;40.25
85909;BME280;76449;52.542;4.680;2024-02-26T11:50:36;100814.28;;;20.04;40.23
85909;BME280;76449;52.542;4.680;2024-02-26T11:55:45;100813.16;;;20.08;39.84
85909;BME280;76449;52.542;4.680;2024-02-26T11:58:11;100822.94;;;20.09;40.13
85909;BME280;76449;52.542;4.680;2024-02-26T12:00:36;100811.25;;;20.11;39.89
85909;BME280;76449;52.542;4.680;2024-02-26T12:03:02;100818.44;;;20.10;40.07
85909;BME280;76449;52.542;4.680;2024-02-26T12:05:32;100816.78;;;20.07;39.67
85909;BME280;76449;52.542;4.680;2024-02-26T12:08:07;100820.59;;;20.03;40.05
85909;BME280;76449;52.542;4.680;2024-02-26T12:10:36;100825.84;;;20.05;40.14
85909;BME280;76449;52.542;4.680;2024-02-26T12:13:13;100822.47;;;20.01;39.94
85909;BME280;76449;52.542;4.680;2024-02-26T12:15:42;100839.28;;;20.05;39.67
85909;BME280;76449;52.542;4.680;2024-02-26T12:18:09;100840.28;;;20.02;39.95
85909;BME280;76449;52.542;4.680;2024-02-26T12:20:35;100847.72;;;19.97;40.28
85909;BME280;76449;52.542;4.680;2024-02-26T12:23:02;100847.31;;;20.05;39.86
85909;BME280;76449;52.542;4.680;2024-02-26T12:25:29;100841.00;;;20.06;39.76
85909;BME280;76449;52.542;4.680;2024-02-26T12:27:55;100853.38;;;20.08;39.66
85909;BME280;76449;52.542;4.680;2024-02-26T12:30:21;100855.03;;;20.11;39.79
85909;BME280;76449;52.542;4.680;2024-02-26T12:32:48;100858.59;;;20.12;39.83
85909;BME280;76449;52.542;4.680;2024-02-26T12:35:14;100864.66;;;20.15;40.23
85909;BME280;76449;52.542;4.680;2024-02-26T12:37:40;100864.59;;;20.17;40.12
85909;BME280;76449;52.542;4.680;2024-02-26T12:40:08;100866.41;;;20.16;40.10
85909;BME280;76449;52.542;4.680;2024-02-26T12:42:34;100861.09;;;20.15;40.06
85909;BME280;76449;52.542;4.680;2024-02-26T12:45:08;100867.16;;;20.18;39.86
85909;BME280;76449;52.542;4.680;2024-02-26T12:47:44;100864.03;;;20.10;39.87
85909;BME280;76449;52.542;4.680;2024-02-26T12:50:14;100871.91;;;20.13;39.81